Friday, October 19, 2018, 4:40 AM GMT
Back to Local

CYQM, Moncton, N. B.

Location: , , Canada Lat: 46.117
Local Time: 4:40 AM GMT ( 4:40 GMT) Lon: -64.683
Time Zone: GMT Elev: 232 ft

Show me the last for .
Show Decoded

2018-10-19 04:00 METAR CYQM 190400Z 27014KT 15SM SKC M01/M08 A2993 RMK SLP141 =
2018-10-19 03:00 METAR CYQM 190300Z 27015G22KT 15SM SKC M01/M08 A2992 RMK SLP136 =
2018-10-19 02:00 METAR CYQM 190200Z 27015G21KT 15SM SKC M00/M07 A2990 RMK SLP131 =
2018-10-19 01:00 METAR CYQM 190100Z 28016G24KT 15SM SKC 00/M06 A2989 RMK SLP126 =
2018-10-19 00:00 METAR CYQM 190000Z 27014G19KT 15SM FEW062 FEW250 00/M05 A2987 RMK SC1CI1 SC TR
                 SLP119 =
2018-10-18 23:00 METAR CYQM 182300Z 27013G18KT 15SM FEW062 FEW250 01/M07 A2983 RMK SC1CI1 SLP107
                 =
2018-10-18 22:00 METAR CYQM 182200Z 28012G24KT 15SM FEW058 FEW250 02/M07 A2979 RMK SC2CI1 CI TR
                 PRESRR SLP093 =
2018-10-18 21:29 METAR CYQM 182129Z 29017G27KT 15SM FEW047 SCT250 02/M07 A2976 RMK SC2CI1 SLP083
                 =
2018-10-18 21:18 METAR CYQM 182118Z 29012G24KT 15SM FEW040 SCT200 02/M07 A2976 RMK CU2CI1 SLP081
                 =
2018-10-18 21:00 METAR CYQM 182100Z 29017G31KT 15SM FEW045 SCT200 03/M07 A2974 RMK SC2CI1 SH W CU
                 ASOCTD SLP077 =
2018-10-18 20:00 METAR CYQM 182000Z 29023G33KT 15SM BKN040 BKN100 BKN220 03/M06 A2971 RMK
                 CU6AC1CI1 CI TR SH SE - SW SLP066 =
2018-10-18 19:49 METAR CYQM 181949Z 28023G29KT 15SM BKN035 BKN090 BKN220 03/M06 A2970 RMK
                 CU5AC1CI1 SH ALQDS SLP063 =
2018-10-18 19:00 METAR CYQM 181900Z 27021G29KT 15SM -SHSN BKN030 BKN045 02/M04 A2969 RMK CU6SC1
                 SLP058 =
2018-10-18 18:00 METAR CYQM 181800Z 28016G29KT 6SM -SHSN BKN030 02/M02 A2967 RMK CU7 SLP050 =
2018-10-18 17:18 METAR CYQM 181718Z 27018G26KT 3SM -SHSN DRSN OVC025 01/M01 A2965 RMK CU8 SLP046
                 =
2018-10-18 17:14 METAR CYQM 181714Z 27019G26KT 1 1/2SM -SHSN DRSN VV015 01/M01 A2965 RMK SN8
                 SLP046 =
2018-10-18 17:04 METAR CYQM 181704Z 26016G21KT 1SM R06/P6000FT/N R29/P6000FT/N -SHSN DRSN VV010
                 01/M01 A2965 RMK SN8 SLP045 =
2018-10-18 17:01 METAR CYQM 181701Z 27016G27KT 1 3/4SM -SHSN DRSN VV013 02/M01 A2965 RMK SN8
                 SLP045 =
2018-10-18 17:00 METAR CYQM 181700Z 27016G27KT 2SM -SHSN DRSN BKN015 VV020 02/M01 A2965 RMK
                 CU7SN1 SLP045 =
2018-10-18 16:53 METAR CYQM 181653Z 28020G31KT 2SM -SHSN DRSN OVC020 02/M03 A2964 RMK CU8 SLP042
                 =
2018-10-18 16:04 METAR CYQM 181604Z 26022G31KT 15SM -SHSN BKN020 BKN045 02/M02 A2963 RMK CU6SC1
                 SLP039 =
2018-10-18 16:00 METAR CYQM 181600Z 27015G29KT 15SM -SHSN BKN020 03/M02 A2963 RMK CU7 VIS N - E 5
                 SLP039 =
2018-10-18 15:09 METAR CYQM 181509Z 28024G29KT 6SM -SHSN BKN025 02/M04 A2962 RMK CU7 SLP036 =
2018-10-18 15:00 METAR CYQM 181500Z 27020G29KT 15SM -SHSN BKN030 03/M04 A2962 RMK CU7 VIS N - E 5
                 SLP036 =
2018-10-18 14:25 METAR CYQM 181425Z 26021G32KT 15SM -SHSN BKN035 03/M04 A2962 RMK CU7 SLP036 =
2018-10-18 14:00 METAR CYQM 181400Z 26021KT 15SM BKN035 02/M03 A2963 RMK CU7 SLP037 =
2018-10-18 13:00 METAR CYQM 181300Z 25015G22KT 15SM FEW025 BKN040 BKN090 BKN220 02/M02 A2963 RMK
                 CU1SC5AC1CI1 AC TR CI TR SLP039 =
2018-10-18 12:00 METAR CYQM 181200Z 25015G21KT 15SM FEW020 BKN035 BKN070 01/M03 A2963 RMK
                 CU1SC6AC1 CU TR SLP039 =
2018-10-18 11:00 METAR CYQM 181100Z 25014KT 15SM FEW020 SCT035 SCT070 00/M02 A2961 RMK CU1SC3AC1
                 CU TR SLP032 =
2018-10-18 10:00 METAR CYQM 181000Z 25013G18KT 15SM FEW020 FEW045 FEW080 SCT240 01/M01 A2959 RMK
                 CU1SC1AC1CI1 CU TR SLP025 =
2018-10-18 09:00 METAR CYQM 180900Z 25014KT 15SM BKN110 01/M01 A2958 RMK AC7 SLP020 =
2018-10-18 08:00 METAR CYQM 180800Z 24015KT 15SM SKC 01/00 A2956 RMK SLP015 =
2018-10-18 07:00 METAR CYQM 180700Z 23009KT 15SM SCT057 BKN073 01/00 A2956 RMK SC3AC2 SLP014 =
2018-10-18 06:00 METAR CYQM 180600Z 25011KT 15SM FEW015 02/01 A2956 RMK SC1 SLP014 =
2018-10-18 05:00 METAR CYQM 180500Z 24013KT 15SM FEW011 SCT054 03/02 A2956 RMK SF2SC1 SLP013 =

Support USWX by starting your Amazon purchase here.